GMFO/OUD METAR and TAF weather

Enter ICAO airport designator
Station Type Date Time Source
GMFO METAR 2019/06/18 12:00 UTC NOAA

GMFO 181200Z 32014KT CAVOK 29/15 Q1016 NOSIG


Station Type Date Time Source
GMFO Decoded METAR 2019/06/18 12:00 UTC NOAA

Oujda, Morocco (GMFO) 34-47N 001-56W 470M
Jun 18, 2019 - 08:00 AM EDT / 2019.06.18 1200 UTC
Wind: from the NW (320 degrees) at 16 MPH (14 KT):0
Visibility: greater than 7 mile(s):0
Temperature: 84 F (29 C)
Dew Point: 59 F (15 C)
Relative Humidity: 42%
Pressure (altimeter): 30.00 in. Hg (1016 hPa)
ob: GMFO 181200Z 32014KT CAVOK 29/15 Q1016 NOSIG
cycle: 12

Station Type Date Time Source
GMFO TAF 2019/06/18 12:16 UTC NOAA

TAF GMFO 181100Z 1812/1918 34016KT CAVOK
BECMG 1820/1822 VRB02KT

Example: see airport list